HLLB Airport Information

Runway Information
Runway 15L Length 11732 ft width 148 ft
Elevation 372 ft Threshold 0 ft Heading 151
Runway 33R Length 11732 ft Width 148 ft
Elevation 433 ft Threshold 0 ft Heading 331
Runway 15R Length 11731 ft width 148 ft
Elevation 372 ft Threshold 0 ft Heading 151
Runway 33L Length 11731 ft Width 148 ft
Elevation 429 ft Threshold 0 ft Heading 331
Airport Frequencies
Type APP Name BENGHAZI A Frequency 126.5 MHZ
Type ARR Name ARR Frequency 127 MHZ
Type DEP Name DEP Frequency 127 MHZ
Type GND Name GND Frequency 121.3 MHZ
Type TWR Name TWR Frequency 118.1 MHZ
Airport Navaids
Type VOR-DME Name Benina Frequency 117400 KHZ
Type NDB Name Benina Frequency 342 KHZ
Type VOR-DME Name Sirte Frequency 117000 KHZ
Airport Weather Information & NOTAM
ADDS - METARS form results

(0101 UTC 22 May 2022)
Data provider http://aviationweather.gov/metar/data/
 
Forecast for: HLLB (BENINA/BENGHAZI , LY)
Text: TAF HLLB 212300Z 2200/2224 32014KT 8000 SCT022
Forecast period: 0000 UTC 22 May 2022 to 0000 UTC 23 May 2022
Forecast type: FROM: standard forecast or significant change
Winds: from the NW (320 degrees) at 16 MPH (14 knots; 7.2 m/s)
Visibility: 5 miles (8 km)
Ceiling: at least 12,000 feet AGL
Clouds: scattered clouds at 2200 feet AGL
Weather: no significant weather forecast for this period